Time;durP1;ratioP1;P1;durP2;ratioP2;P2;SDS_P1;SDS_P2;PMS_P1;PMS_P2;Temp;Humidity;BMP_temperature;BMP_pressure;BME280_temperature;BME280_humidity;BME280_pressure;Samples;Min_cycle;Max_cycle;Signal;HPM_P1;HPM_P2
2021/10/09 00:02:24;;;;;;;19.63;7.10;;;14.30;99.90;;;;;;4953689;29;20098;-74
2021/10/09 00:04:50;;;;;;;28.15;7.65;;;14.30;99.90;;;;;;4957307;28;20031;-74
2021/10/09 00:07:16;;;;;;;22.75;7.53;;;14.30;99.90;;;;;;4957773;29;20424;-74
2021/10/09 00:09:43;;;;;;;16.83;7.03;;;14.30;99.90;;;;;;4956747;29;20484;-75
2021/10/09 00:12:09;;;;;;;26.17;8.43;;;14.30;99.90;;;;;;4955854;29;20102;-75
2021/10/09 00:14:35;;;;;;;16.70;7.75;;;14.30;99.90;;;;;;4956395;29;20019;-74
2021/10/09 00:17:00;;;;;;;21.58;6.95;;;14.20;99.90;;;;;;4957163;29;20102;-74
2021/10/09 00:19:26;;;;;;;25.23;7.05;;;14.20;99.90;;;;;;4957141;29;20031;-75
2021/10/09 00:21:52;;;;;;;20.00;7.32;;;14.20;99.90;;;;;;4956574;29;20488;-73
2021/10/09 00:24:19;;;;;;;22.73;7.07;;;14.10;99.90;;;;;;4957040;29;20035;-73
2021/10/09 00:26:47;;;;;;;21.88;8.02;;;14.10;99.90;;;;;;4956934;29;20039;-74
2021/10/09 00:29:13;;;;;;;18.42;8.32;;;14.20;99.90;;;;;;4956791;29;20027;-74
2021/10/09 00:31:39;;;;;;;20.27;7.38;;;14.20;99.90;;;;;;4956677;29;20039;-74
2021/10/09 00:34:05;;;;;;;15.93;6.20;;;14.20;99.90;;;;;;4956539;29;20031;-73
2021/10/09 00:36:31;;;;;;;23.20;7.47;;;14.20;99.90;;;;;;4956100;29;20074;-73
2021/10/09 00:38:57;;;;;;;19.65;7.25;;;14.20;99.90;;;;;;4956503;29;20399;-72
2021/10/09 00:41:23;;;;;;;17.52;7.22;;;14.20;99.90;;;;;;4939683;29;20086;-73
2021/10/09 00:43:49;;;;;;;18.23;7.32;;;14.20;99.90;;;;;;4956356;29;20106;-72
2021/10/09 00:46:14;;;;;;;22.98;8.70;;;14.10;99.90;;;;;;4954688;28;20118;-72
2021/10/09 00:48:41;;;;;;;17.38;7.40;;;14.10;99.90;;;;;;4956311;29;20066;-72
2021/10/09 00:51:06;;;;;;;25.27;9.32;;;14.10;99.90;;;;;;4956203;29;20128;-74
2021/10/09 00:53:36;;;;;;;24.60;7.72;;;14.20;99.90;;;;;;4956155;29;20027;-73
2021/10/09 00:56:03;;;;;;;24.90;9.90;;;14.10;99.90;;;;;;4956682;29;20108;-73
2021/10/09 00:58:29;;;;;;;23.80;9.25;;;14.10;99.90;;;;;;4956123;29;20043;-73
2021/10/09 01:00:56;;;;;;;24.45;8.85;;;14.10;99.90;;;;;;4955753;29;20039;-76
2021/10/09 01:03:23;;;;;;;25.00;8.30;;;14.10;99.90;;;;;;4939090;29;20110;-74
2021/10/09 01:05:49;;;;;;;32.28;8.75;;;14.00;99.90;;;;;;4955938;29;20031;-73
2021/10/09 01:08:15;;;;;;;28.05;9.40;;;14.00;99.90;;;;;;4955945;29;20046;-73
2021/10/09 01:10:41;;;;;;;23.27;8.75;;;14.00;99.90;;;;;;4955719;29;20513;-73
2021/10/09 01:13:07;;;;;;;25.75;9.23;;;14.00;99.90;;;;;;4955763;29;20027;-74
2021/10/09 01:15:34;;;;;;;30.40;7.72;;;14.00;99.90;;;;;;4955802;28;20046;-74
2021/10/09 01:18:07;;;;;;;25.27;8.38;;;14.00;99.90;;;;;;4955979;29;20540;-74
2021/10/09 01:20:47;;;;;;;23.10;9.00;;;14.00;99.90;;;;;;4955412;29;20035;-73
2021/10/09 01:23:13;;;;;;;23.48;8.93;;;14.00;99.90;;;;;;4955464;29;20032;-74
2021/10/09 01:25:38;;;;;;;16.90;8.00;;;14.00;99.90;;;;;;4955613;29;20500;-73
2021/10/09 01:28:07;;;;;;;14.77;8.38;;;14.00;99.90;;;;;;4955441;29;20023;-76
2021/10/09 01:30:33;;;;;;;28.25;9.10;;;14.00;99.90;;;;;;4955184;29;20019;-72
2021/10/09 01:33:00;;;;;;;34.47;9.55;;;14.00;99.90;;;;;;4955344;29;20373;-73
2021/10/09 01:35:26;;;;;;;28.92;9.15;;;14.00;99.90;;;;;;4955749;29;20412;-72
2021/10/09 01:37:51;;;;;;;26.08;8.85;;;14.00;99.90;;;;;;4955705;29;20027;-77
2021/10/09 01:40:17;;;;;;;21.75;9.05;;;14.20;99.90;;;;;;4954291;29;20120;-73
2021/10/09 01:42:43;;;;;;;30.98;8.57;;;14.20;99.90;;;;;;4937215;29;20067;-75
2021/10/09 01:45:10;;;;;;;27.23;9.85;;;14.20;99.90;;;;;;4954889;29;20058;-74
2021/10/09 01:47:42;;;;;;;21.33;8.68;;;14.20;99.90;;;;;;4954392;29;20517;-74
2021/10/09 01:50:12;;;;;;;23.35;8.13;;;14.10;99.90;;;;;;4954678;29;20071;-73
2021/10/09 01:52:38;;;;;;;27.98;9.13;;;14.10;99.90;;;;;;4937048;29;20047;-74
2021/10/09 01:55:04;;;;;;;27.58;9.98;;;14.10;99.90;;;;;;4953895;29;20041;-73
2021/10/09 01:57:30;;;;;;;18.98;8.88;;;14.10;99.90;;;;;;4953610;29;20054;-73
2021/10/09 01:59:56;;;;;;;15.98;8.50;;;14.10;99.90;;;;;;4953837;29;20390;-73
2021/10/09 02:02:21;;;;;;;20.13;8.63;;;14.10;99.90;;;;;;4936369;29;20050;-73
2021/10/09 02:04:47;;;;;;;24.65;9.15;;;14.10;99.90;;;;;;4936865;29;20031;-74
2021/10/09 02:07:20;;;;;;;21.20;8.55;;;14.10;99.90;;;;;;4954265;29;20031;-73
2021/10/09 02:09:46;;;;;;;30.02;9.00;;;14.10;99.90;;;;;;4953870;29;20488;-73
2021/10/09 02:12:12;;;;;;;22.25;8.65;;;14.10;99.90;;;;;;4961536;28;20093;-76
2021/10/09 02:14:49;;;;;;;33.55;9.82;;;14.00;99.90;;;;;;4938365;29;20027;-74
2021/10/09 02:28:03;;;;;;;27.40;8.38;;;14.10;99.90;;;;;;4953089;28;20039;-73
2021/10/09 02:30:29;;;;;;;27.80;9.25;;;14.10;99.90;;;;;;4932752;29;20027;-73
2021/10/09 02:32:55;;;;;;;24.60;8.68;;;14.10;99.90;;;;;;4947949;28;20514;-73
2021/10/09 02:35:20;;;;;;;17.52;8.27;;;14.10;99.90;;;;;;4953693;29;20075;-75
2021/10/09 02:37:46;;;;;;;18.80;8.23;;;14.20;99.90;;;;;;4953675;29;20024;-73
2021/10/09 02:40:12;;;;;;;17.98;8.23;;;14.20;99.90;;;;;;4953237;29;20039;-75
2021/10/09 02:42:38;;;;;;;18.83;7.93;;;14.10;99.90;;;;;;4953545;29;20027;-74
2021/10/09 02:45:05;;;;;;;25.10;8.20;;;14.20;99.90;;;;;;4952816;29;20047;-73
2021/10/09 02:47:31;;;;;;;22.77;9.27;;;14.10;99.90;;;;;;4953205;29;20023;-74
2021/10/09 02:49:56;;;;;;;18.58;8.60;;;14.10;99.90;;;;;;4952903;29;20038;-74
2021/10/09 02:52:22;;;;;;;21.98;8.80;;;14.10;99.90;;;;;;4953169;29;20042;-74
2021/10/09 02:54:47;;;;;;;26.65;8.77;;;14.10;99.90;;;;;;4953198;29;20035;-74
2021/10/09 02:57:13;;;;;;;23.25;8.48;;;14.10;99.90;;;;;;4935971;29;20404;-73
2021/10/09 02:59:39;;;;;;;22.73;8.52;;;14.10;99.90;;;;;;4952980;29;20481;-73
2021/10/09 03:02:04;;;;;;;26.58;10.25;;;14.10;99.90;;;;;;4953309;29;20118;-73
2021/10/09 03:04:31;;;;;;;20.40;8.23;;;14.10;99.90;;;;;;4952954;29;20039;-73
2021/10/09 03:06:57;;;;;;;17.80;8.10;;;14.10;99.90;;;;;;4952959;29;20071;-75
2021/10/09 03:09:24;;;;;;;21.65;9.18;;;14.10;99.90;;;;;;4953322;29;20114;-73
2021/10/09 03:11:50;;;;;;;20.98;7.97;;;14.10;99.90;;;;;;4953412;29;20043;-73
2021/10/09 03:14:15;;;;;;;20.08;8.13;;;14.00;99.90;;;;;;4952853;29;20043;-74
2021/10/09 03:16:41;;;;;;;22.88;8.05;;;14.00;99.90;;;;;;4953097;29;20484;-76
2021/10/09 03:19:06;;;;;;;29.33;8.50;;;13.90;99.90;;;;;;4935652;29;20400;-74
2021/10/09 03:21:32;;;;;;;22.90;8.05;;;13.90;99.90;;;;;;4952900;29;20118;-74
2021/10/09 03:23:58;;;;;;;30.02;8.93;;;13.90;99.90;;;;;;4952887;29;20039;-73
2021/10/09 03:26:23;;;;;;;29.48;8.35;;;14.00;99.90;;;;;;4952577;29;20057;-73
2021/10/09 03:28:50;;;;;;;19.45;8.98;;;14.00;99.90;;;;;;4953246;29;20034;-73
2021/10/09 03:31:16;;;;;;;22.08;8.27;;;14.00;99.90;;;;;;4952510;29;20043;-73
2021/10/09 03:33:42;;;;;;;29.17;8.90;;;14.00;99.90;;;;;;4953139;29;20028;-74
2021/10/09 03:36:07;;;;;;;21.23;9.05;;;14.00;99.90;;;;;;4953279;29;20034;-74
2021/10/09 03:38:35;;;;;;;20.15;8.43;;;14.00;99.90;;;;;;4955247;28;20552;-73
2021/10/09 03:41:07;;;;;;;17.25;7.75;;;14.00;99.90;;;;;;4957372;29;20023;-74
2021/10/09 03:43:32;;;;;;;;;;;14.00;99.90;;;;;;4958108;29;20475;-74
2021/10/09 03:53:34;;;;;;;36.08;8.13;;;13.90;99.90;;;;;;4957569;29;20077;-75
2021/10/09 03:56:00;;;;;;;18.67;8.35;;;13.90;99.90;;;;;;4957098;29;20059;-74
2021/10/09 03:58:26;;;;;;;18.42;8.55;;;13.90;99.90;;;;;;4939766;29;20415;-74
2021/10/09 04:00:52;;;;;;;23.00;9.50;;;13.90;99.90;;;;;;4956784;29;20114;-74
2021/10/09 04:03:18;;;;;;;17.27;8.65;;;13.80;99.90;;;;;;4957085;29;20114;-75
2021/10/09 04:05:44;;;;;;;20.33;7.78;;;13.80;99.90;;;;;;4956658;29;20102;-75
2021/10/09 04:08:10;;;;;;;23.27;8.98;;;13.80;99.90;;;;;;4957084;29;20061;-74
2021/10/09 04:10:37;;;;;;;26.45;8.48;;;13.80;99.90;;;;;;4956953;29;20369;-74
2021/10/09 04:13:03;;;;;;;28.75;9.80;;;13.80;99.90;;;;;;4956935;29;20065;-73
2021/10/09 04:15:29;;;;;;;18.73;7.60;;;13.80;99.90;;;;;;4957265;29;20384;-73
2021/10/09 04:17:55;;;;;;;25.85;9.55;;;13.80;99.90;;;;;;4956847;29;20445;-74
2021/10/09 04:20:21;;;;;;;29.45;9.57;;;13.80;99.90;;;;;;4957112;29;20035;-74
2021/10/09 04:22:46;;;;;;;21.95;8.57;;;13.80;99.90;;;;;;4957067;29;20106;-74
2021/10/09 04:25:12;;;;;;;23.17;9.20;;;13.80;99.90;;;;;;4956857;29;20107;-74
2021/10/09 04:27:38;;;;;;;24.52;9.35;;;13.80;99.90;;;;;;4957063;29;20043;-73
2021/10/09 04:30:05;;;;;;;22.52;9.35;;;13.80;99.90;;;;;;4956458;29;20028;-73
2021/10/09 04:32:31;;;;;;;26.20;9.25;;;13.80;99.90;;;;;;4936118;29;20508;-74
2021/10/09 04:34:57;;;;;;;29.30;9.65;;;13.80;99.90;;;;;;4953666;29;20027;-73
2021/10/09 04:37:22;;;;;;;22.35;7.97;;;13.80;99.90;;;;;;4956690;28;20095;-73
2021/10/09 04:39:48;;;;;;;25.30;9.00;;;13.80;99.90;;;;;;4956295;29;20139;-73
2021/10/09 04:42:14;;;;;;;20.00;9.27;;;13.80;99.90;;;;;;4937913;29;20041;-73
2021/10/09 04:44:40;;;;;;;21.90;9.73;;;13.70;99.90;;;;;;4956435;29;20028;-74
2021/10/09 04:47:06;;;;;;;21.13;8.73;;;13.80;99.90;;;;;;4938993;29;20031;-75
2021/10/09 04:49:31;;;;;;;24.60;8.55;;;13.80;99.90;;;;;;4955860;28;20023;-72
2021/10/09 04:51:57;;;;;;;26.38;9.70;;;13.70;99.90;;;;;;4956291;29;20114;-74
2021/10/09 04:54:23;;;;;;;27.55;8.25;;;13.70;99.90;;;;;;4956502;29;20033;-74
2021/10/09 04:56:49;;;;;;;25.92;9.10;;;13.70;99.90;;;;;;4956628;29;20034;-73
2021/10/09 04:59:14;;;;;;;23.73;8.45;;;13.70;99.90;;;;;;4955697;29;20067;-73
2021/10/09 05:01:40;;;;;;;27.60;8.82;;;13.70;99.90;;;;;;4955876;29;20436;-73
2021/10/09 05:04:06;;;;;;;25.00;8.55;;;13.70;99.90;;;;;;4956024;29;20041;-73
2021/10/09 05:06:32;;;;;;;18.65;7.80;;;13.70;99.90;;;;;;4955899;29;20050;-74
2021/10/09 05:08:57;;;;;;;24.35;8.07;;;13.70;99.90;;;;;;4956263;29;20035;-72
2021/10/09 05:11:23;;;;;;;20.95;8.07;;;13.70;99.90;;;;;;4956041;29;20082;-73
2021/10/09 05:13:49;;;;;;;24.23;8.60;;;13.70;99.90;;;;;;4956077;29;20110;-78
2021/10/09 05:16:15;;;;;;;16.85;8.63;;;13.60;99.90;;;;;;4942650;29;20051;-73
2021/10/09 05:18:41;;;;;;;22.00;8.60;;;13.60;99.90;;;;;;4955964;29;20031;-74
2021/10/09 05:21:08;;;;;;;16.83;8.32;;;13.60;99.90;;;;;;4956138;29;20092;-74
2021/10/09 05:23:34;;;;;;;22.08;8.70;;;13.60;99.90;;;;;;4962107;28;20041;-73
2021/10/09 05:26:00;;;;;;;14.95;7.82;;;13.60;99.90;;;;;;4963852;28;20181;-73
2021/10/09 05:28:39;;;;;;;20.42;7.97;;;13.70;99.90;;;;;;4955691;29;20051;-74
2021/10/09 05:31:05;;;;;;;23.88;7.18;;;13.70;99.90;;;;;;4955712;29;20044;-72
2021/10/09 05:35:57;;;;;;;18.67;7.95;;;13.70;99.90;;;;;;4955635;29;20027;-73
2021/10/09 05:38:22;;;;;;;14.10;7.22;;;13.80;99.90;;;;;;4955352;29;20096;-74
2021/10/09 05:40:48;;;;;;;21.17;7.57;;;13.80;99.90;;;;;;4954752;29;20373;-73
2021/10/09 05:43:18;;;;;;;18.98;8.27;;;13.90;99.90;;;;;;4954957;29;20039;-74
2021/10/09 05:45:44;;;;;;;13.07;7.20;;;14.10;99.90;;;;;;4954481;29;20063;-73
2021/10/09 05:48:10;;;;;;;23.67;7.45;;;14.40;99.90;;;;;;4954696;29;20035;-73
2021/10/09 05:51:21;;;;;;;26.20;7.40;;;14.80;99.90;;;;;;4954220;28;20118;-75
2021/10/09 06:42:32;;;;;;;15.65;6.00;;;22.00;95.70;;;;;;4953633;28;20443;-75
2021/10/09 07:00:33;;;;;;;21.30;6.40;;;24.00;91.20;;;;;;4952500;29;20121;-75
2021/10/09 07:02:59;;;;;;;15.07;5.50;;;24.20;90.70;;;;;;4952828;29;20129;-75
2021/10/09 07:05:25;;;;;;;14.95;7.05;;;23.80;90.50;;;;;;4951765;29;20031;-76
2021/10/09 07:07:54;;;;;;;20.88;6.95;;;23.50;90.50;;;;;;4953084;29;20544;-74
2021/10/09 07:10:20;;;;;;;23.60;8.88;;;23.30;91.10;;;;;;4953086;28;20043;-72
2021/10/09 07:12:46;;;;;;;18.83;8.02;;;23.20;91.10;;;;;;4952965;28;20039;-74
2021/10/09 07:15:14;;;;;;;19.73;6.97;;;23.30;91.10;;;;;;4953202;29;20038;-74
2021/10/09 07:17:40;;;;;;;24.50;5.72;;;23.90;90.80;;;;;;4952291;29;20131;-76
2021/10/09 07:20:07;;;;;;;19.02;6.63;;;24.70;88.70;;;;;;4953140;29;20038;-76
2021/10/09 07:22:33;;;;;;;18.52;6.80;;;25.40;87.60;;;;;;4953530;29;20039;-73
2021/10/09 07:24:59;;;;;;;18.77;8.68;;;25.40;86.90;;;;;;4953813;29;20399;-74
2021/10/09 07:27:25;;;;;;;23.55;6.10;;;25.60;85.50;;;;;;4935722;29;20398;-73
2021/10/09 07:29:51;;;;;;;23.25;7.28;;;25.70;84.40;;;;;;4953447;29;20031;-72
2021/10/09 07:32:17;;;;;;;18.13;6.35;;;25.90;84.40;;;;;;4953517;29;20042;-74
2021/10/09 07:34:43;;;;;;;31.63;7.88;;;26.60;83.10;;;;;;4953692;29;20543;-72
2021/10/09 07:37:09;;;;;;;48.33;17.48;;;26.80;81.60;;;;;;4951518;29;20039;-73
2021/10/09 07:39:35;;;;;;;24.38;6.43;;;26.20;82.00;;;;;;4952712;29;20484;-76
2021/10/09 07:42:01;;;;;;;26.52;9.65;;;25.70;82.10;;;;;;4953371;29;20043;-76
2021/10/09 07:44:27;;;;;;;12.25;5.45;;;24.90;82.50;;;;;;4953680;29;20034;-77
2021/10/09 07:46:53;;;;;;;16.83;6.28;;;25.10;83.30;;;;;;4952883;29;20028;-76
2021/10/09 07:49:19;;;;;;;18.65;6.78;;;25.40;81.80;;;;;;4952278;29;20118;-73
2021/10/09 07:51:45;;;;;;;17.15;6.70;;;24.10;82.60;;;;;;4953340;29;20039;-84
2021/10/09 07:54:11;;;;;;;18.85;7.28;;;23.80;84.50;;;;;;4952992;29;20038;-76
2021/10/09 07:56:37;;;;;;;23.60;6.80;;;24.10;84.70;;;;;;4953338;29;20385;-74
2021/10/09 07:59:03;;;;;;;20.85;6.82;;;23.70;84.40;;;;;;4953002;29;20047;-71
2021/10/09 08:01:31;;;;;;;15.77;6.60;;;23.60;84.60;;;;;;4953286;29;20095;-72
2021/10/09 08:03:57;;;;;;;18.38;6.75;;;23.70;85.00;;;;;;4952686;29;20074;-71
2021/10/09 08:06:23;;;;;;;11.98;6.20;;;24.00;83.50;;;;;;4952523;29;20039;-71
2021/10/09 08:08:49;;;;;;;15.98;6.85;;;23.70;84.30;;;;;;4953089;29;20051;-71
2021/10/09 08:11:15;;;;;;;30.50;7.38;;;23.60;84.30;;;;;;4951265;29;20043;-71
2021/10/09 08:13:41;;;;;;;18.80;7.45;;;23.60;84.90;;;;;;4949987;29;20027;-81
2021/10/09 08:16:06;;;;;;;22.20;8.55;;;23.20;84.40;;;;;;4952659;29;20082;-70
2021/10/09 08:18:32;;;;;;;17.63;6.57;;;22.80;85.60;;;;;;4932975;29;20122;-72
2021/10/09 08:21:07;;;;;;;16.98;6.85;;;22.60;86.00;;;;;;4951792;29;20027;-72
2021/10/09 08:23:50;;;;;;;15.95;6.68;;;22.60;86.50;;;;;;4952428;29;20075;-74
2021/10/09 08:39:45;;;;;;;16.35;7.60;;;21.20;89.40;;;;;;4955810;29;20090;-71
2021/10/09 08:42:12;;;;;;;13.45;6.82;;;21.00;90.30;;;;;;4955644;29;20031;-70
2021/10/09 08:44:40;;;;;;;16.02;6.97;;;20.70;90.50;;;;;;4956380;29;20057;-71
2021/10/09 08:47:08;;;;;;;17.35;6.57;;;20.70;90.80;;;;;;4955792;29;20388;-71
2021/10/09 08:49:35;;;;;;;20.83;10.10;;;20.50;91.30;;;;;;4955449;29;20093;-73
2021/10/09 08:52:04;;;;;;;27.98;10.38;;;20.40;91.40;;;;;;4955392;29;20051;-70
2021/10/09 08:54:40;;;;;;;21.50;7.40;;;20.00;91.90;;;;;;4955323;29;20089;-70
2021/10/09 08:57:15;;;;;;;18.50;6.78;;;20.10;92.20;;;;;;4954190;29;20035;-70
2021/10/09 08:59:50;;;;;;;31.00;8.50;;;20.20;92.10;;;;;;4955314;29;20042;-72
2021/10/09 09:02:33;;;;;;;29.05;9.98;;;20.40;92.20;;;;;;4938033;29;20528;-70
2021/10/09 09:33:13;;;;;;;18.58;7.97;;;22.20;91.10;;;;;;4954955;29;20039;-69
2021/10/09 09:35:54;;;;;;;36.05;8.48;;;22.30;90.20;;;;;;4952223;28;20083;-70
2021/10/09 09:41:12;;;;;;;20.33;8.35;;;21.10;91.20;;;;;;4954525;29;20488;-69
2021/10/09 09:43:41;;;;;;;23.20;8.00;;;20.60;91.60;;;;;;4954941;29;20027;-70
2021/10/09 09:46:20;;;;;;;32.95;8.65;;;20.30;91.60;;;;;;4954561;29;20040;-80
2021/10/09 09:48:46;;;;;;;20.95;8.38;;;19.60;92.10;;;;;;4954443;29;20392;-69
2021/10/09 09:51:14;;;;;;;26.25;9.52;;;19.10;92.70;;;;;;4952213;29;20043;-69
2021/10/09 09:53:41;;;;;;;23.85;8.20;;;18.90;93.30;;;;;;4952431;29;20090;-69
2021/10/09 09:56:08;;;;;;;21.35;9.10;;;18.80;93.50;;;;;;4953233;29;20035;-69
2021/10/09 09:58:43;;;;;;;29.73;8.98;;;18.80;93.40;;;;;;4952675;29;20126;-69
2021/10/09 10:01:11;;;;;;;24.17;8.77;;;18.80;93.90;;;;;;4953390;29;20494;-70
2021/10/09 10:03:37;;;;;;;23.25;8.90;;;18.70;93.80;;;;;;4953559;29;20122;-69
2021/10/09 10:06:04;;;;;;;33.78;9.05;;;18.70;94.30;;;;;;4935896;29;20556;-73
2021/10/09 10:08:30;;;;;;;33.65;9.63;;;18.80;94.80;;;;;;4953120;29;20039;-70
2021/10/09 10:11:00;;;;;;;30.42;8.85;;;18.90;94.50;;;;;;4954081;29;20392;-79
2021/10/09 10:13:28;;;;;;;22.13;8.50;;;18.90;94.20;;;;;;4953636;29;20197;-75
2021/10/09 10:15:58;;;;;;;27.25;9.40;;;18.90;94.50;;;;;;4953467;29;20074;-70
2021/10/09 10:18:49;;;;;;;23.67;12.65;;;18.90;94.80;;;;;;4952843;29;20062;-71
2021/10/09 10:21:16;;;;;;;24.48;9.00;;;18.60;95.10;;;;;;4942426;29;20035;-69
2021/10/09 10:23:46;;;;;;;28.80;8.75;;;18.50;95.40;;;;;;4953351;29;20037;-70
2021/10/09 10:26:21;;;;;;;19.83;7.88;;;18.70;94.90;;;;;;4935412;29;20063;-69
2021/10/09 10:29:07;;;;;;;23.83;8.52;;;18.50;94.90;;;;;;4950440;29;20031;-73
2021/10/09 10:31:34;;;;;;;22.70;9.95;;;18.30;95.40;;;;;;4953146;29;20039;-71
2021/10/09 10:34:18;;;;;;;28.98;8.60;;;18.30;95.80;;;;;;4953381;29;20046;-70
2021/10/09 10:36:45;;;;;;;17.73;7.93;;;18.30;95.50;;;;;;4953773;29;20039;-71
2021/10/09 10:39:13;;;;;;;25.27;9.20;;;18.30;95.70;;;;;;4954019;29;20038;-70
2021/10/09 10:42:00;;;;;;;20.02;8.25;;;18.30;95.90;;;;;;4953060;29;20054;-71
2021/10/09 10:44:50;;;;;;;25.65;8.82;;;18.40;95.50;;;;;;4935263;29;20150;-71
2021/10/09 10:53:37;;;;;;;16.80;8.52;;;18.20;95.80;;;;;;4953441;29;20043;-73
2021/10/09 10:56:05;;;;;;;;;;;18.10;96.20;;;;;;4954428;29;20043;-68
2021/10/09 10:58:30;;;;;;;29.25;8.57;;;18.00;95.90;;;;;;4953761;29;19957;-71
2021/10/09 11:01:19;;;;;;;14.73;7.97;;;17.90;96.60;;;;;;4952562;29;20093;-70
2021/10/09 11:03:47;;;;;;;27.27;9.68;;;18.00;96.80;;;;;;4953431;29;20700;-71
2021/10/09 11:06:15;;;;;;;23.38;9.77;;;18.00;96.60;;;;;;4954558;29;20042;-78
2021/10/09 11:08:45;;;;;;;22.63;9.30;;;18.10;96.80;;;;;;4954739;28;20039;-71
2021/10/09 11:11:12;;;;;;;22.65;11.32;;;18.20;97.10;;;;;;4951986;29;20050;-79
2021/10/09 11:13:40;;;;;;;26.20;10.52;;;18.10;97.00;;;;;;4952805;29;20023;-72
2021/10/09 11:16:06;;;;;;;25.65;9.48;;;18.00;97.10;;;;;;4953720;29;20027;-75
2021/10/09 11:18:49;;;;;;;25.38;8.75;;;17.80;97.30;;;;;;4953259;29;20047;-71
2021/10/09 11:21:16;;;;;;;21.83;8.77;;;17.50;97.50;;;;;;4953204;29;20118;-72
2021/10/09 11:23:56;;;;;;;19.50;9.38;;;17.50;97.60;;;;;;4952219;29;20031;-70
2021/10/09 11:26:25;;;;;;;29.55;8.95;;;17.50;97.90;;;;;;4951657;29;20046;-71
2021/10/09 11:29:08;;;;;;;31.00;8.82;;;17.50;97.80;;;;;;4950184;29;20130;-73
2021/10/09 11:31:33;;;;;;;25.23;8.35;;;17.50;97.60;;;;;;4950261;29;20070;-80
2021/10/09 11:34:00;;;;;;;31.90;9.05;;;17.40;97.90;;;;;;4944435;29;20064;-70
2021/10/09 11:36:27;;;;;;;22.23;9.20;;;17.40;98.10;;;;;;4950477;29;20027;-71
2021/10/09 11:39:11;;;;;;;29.30;11.30;;;17.50;98.20;;;;;;4952368;29;20496;-78
2021/10/09 11:41:37;;;;;;;25.55;10.27;;;17.60;98.70;;;;;;4951976;29;20051;-72
2021/10/09 11:44:41;;;;;;;17.80;8.43;;;17.40;98.30;;;;;;4952519;29;20071;-71
2021/10/09 11:56:08;;;;;;;17.75;8.52;;;17.30;98.70;;;;;;4950057;29;20046;-76
2021/10/09 11:58:58;;;;;;;20.40;8.13;;;17.30;98.40;;;;;;4951486;28;20058;-72
2021/10/09 12:01:36;;;;;;;15.50;7.97;;;17.30;98.70;;;;;;4955488;29;20077;-72
2021/10/09 12:04:23;;;;;;;16.40;7.57;;;17.40;98.90;;;;;;4952785;29;20062;-75
2021/10/09 12:06:58;;;;;;;16.13;8.07;;;17.50;98.40;;;;;;4953933;29;20082;-84
2021/10/09 12:09:47;;;;;;;15.07;6.95;;;17.40;98.40;;;;;;4953226;29;20090;-72
2021/10/09 12:12:23;;;;;;;22.73;8.25;;;17.30;98.30;;;;;;4955464;29;20437;-71
2021/10/09 12:14:52;;;;;;;15.48;8.00;;;17.10;98.90;;;;;;4954615;29;20047;-72
2021/10/09 12:17:21;;;;;;;13.60;7.30;;;17.10;99.20;;;;;;4955576;29;20035;-76
2021/10/09 12:20:10;;;;;;;20.55;7.72;;;17.10;98.90;;;;;;4952013;29;20035;-78
2021/10/09 12:22:42;;;;;;;20.88;7.90;;;17.10;99.00;;;;;;4954148;29;20114;-71
2021/10/09 12:25:28;;;;;;;15.93;8.00;;;17.10;98.90;;;;;;4945410;29;20032;-74
2021/10/09 12:28:02;;;;;;;19.58;8.00;;;16.90;99.10;;;;;;4956440;29;20031;-72
2021/10/09 12:30:48;;;;;;;16.95;7.53;;;16.80;99.50;;;;;;4956420;29;20030;-70
2021/10/09 12:33:38;;;;;;;18.80;7.80;;;16.70;99.80;;;;;;4956478;29;20039;-74
2021/10/09 12:36:38;;;;;;;38.05;8.02;;;16.60;99.80;;;;;;4956113;29;20036;-73
2021/10/09 12:39:25;;;;;;;23.40;7.85;;;16.50;99.90;;;;;;4954474;29;20039;-74
2021/10/09 12:41:54;;;;;;;15.55;7.50;;;16.50;99.90;;;;;;4955266;29;20528;-71
2021/10/09 12:44:21;;;;;;;17.55;7.82;;;16.60;99.90;;;;;;4934897;29;20040;-77
2021/10/09 12:46:48;;;;;;;19.98;7.72;;;16.50;99.90;;;;;;4949358;29;20107;-71
2021/10/09 12:49:14;;;;;;;21.52;8.05;;;16.50;99.90;;;;;;4955845;29;20060;-74
2021/10/09 12:51:40;;;;;;;16.48;7.43;;;16.50;99.90;;;;;;4954975;29;20035;-73
2021/10/09 12:54:07;;;;;;;31.40;8.18;;;16.50;99.90;;;;;;4955320;28;20506;-72
2021/10/09 12:56:34;;;;;;;17.10;8.25;;;16.40;99.90;;;;;;4956282;29;20130;-71
2021/10/09 12:59:01;;;;;;;21.55;8.32;;;16.40;99.90;;;;;;4955266;29;20404;-71
2021/10/09 13:01:27;;;;;;;19.08;8.20;;;16.50;99.90;;;;;;4956001;29;20019;-72
2021/10/09 13:03:54;;;;;;;14.60;7.75;;;16.60;99.90;;;;;;4955604;29;20042;-75
2021/10/09 13:06:20;;;;;;;30.33;8.48;;;16.60;99.90;;;;;;4955819;29;20031;-74
2021/10/09 13:08:45;;;;;;;21.92;9.05;;;16.40;99.90;;;;;;4930433;29;20047;-79
2021/10/09 13:11:11;;;;;;;17.27;7.22;;;16.40;99.90;;;;;;4952025;28;20042;-76
2021/10/09 13:13:38;;;;;;;25.73;7.50;;;16.40;99.90;;;;;;4955093;29;20043;-71
2021/10/09 13:16:06;;;;;;;21.60;8.00;;;16.30;99.90;;;;;;4955203;29;20689;-69
2021/10/09 13:18:31;;;;;;;25.15;9.25;;;16.20;99.90;;;;;;4954928;29;20400;-69
2021/10/09 13:20:58;;;;;;;22.33;9.00;;;16.20;99.90;;;;;;4954782;29;20043;-69
2021/10/09 13:23:24;;;;;;;20.75;8.27;;;16.10;99.90;;;;;;4954630;29;20369;-69
2021/10/09 13:25:50;;;;;;;34.38;9.30;;;16.10;99.90;;;;;;4954511;29;20568;-88
2021/10/09 13:28:15;;;;;;;19.08;8.27;;;16.10;99.90;;;;;;4954020;29;20035;-71
2021/10/09 13:30:41;;;;;;;25.38;8.70;;;16.10;99.90;;;;;;4955485;29;20373;-71
2021/10/09 13:33:07;;;;;;;21.02;9.10;;;16.00;99.90;;;;;;4954243;29;20043;-74
2021/10/09 13:35:34;;;;;;;27.75;8.55;;;16.10;99.90;;;;;;4954608;29;20566;-71
2021/10/09 13:38:02;;;;;;;46.50;10.20;;;16.00;99.90;;;;;;4952048;29;20522;-72
2021/10/09 13:40:27;;;;;;;24.38;9.18;;;16.10;99.90;;;;;;4952352;29;20035;-71
2021/10/09 13:42:53;;;;;;;28.92;8.93;;;16.00;99.90;;;;;;4953300;29;20036;-73
2021/10/09 13:45:19;;;;;;;24.45;7.90;;;16.00;99.90;;;;;;4953393;29;20480;-71
2021/10/09 13:47:45;;;;;;;31.75;8.98;;;16.10;99.90;;;;;;4952276;29;20032;-72
2021/10/09 13:50:12;;;;;;;32.10;9.77;;;16.10;99.90;;;;;;4953650;29;20058;-71
2021/10/09 13:52:38;;;;;;;28.08;9.50;;;15.90;99.90;;;;;;4954766;29;20047;-72
2021/10/09 13:55:05;;;;;;;20.05;9.75;;;15.80;99.90;;;;;;4953398;29;20054;-70
2021/10/09 13:57:30;;;;;;;27.23;9.20;;;15.80;99.90;;;;;;4952973;29;20036;-73
2021/10/09 13:59:56;;;;;;;18.48;9.18;;;15.80;99.90;;;;;;4953917;29;20046;-73
2021/10/09 14:02:25;;;;;;;26.23;9.02;;;15.80;99.90;;;;;;4953488;29;20047;-73
2021/10/09 14:04:51;;;;;;;30.20;8.60;;;15.70;99.90;;;;;;4954301;29;20034;-73
2021/10/09 14:07:17;;;;;;;22.52;7.72;;;15.70;99.90;;;;;;4937640;29;20031;-74
2021/10/09 14:09:42;;;;;;;18.38;8.73;;;15.70;99.90;;;;;;4954989;29;20074;-74
2021/10/09 14:12:09;;;;;;;22.00;8.40;;;15.60;99.90;;;;;;4954955;29;20054;-76
2021/10/09 14:14:35;;;;;;;26.35;9.38;;;15.60;99.90;;;;;;4954521;29;20028;-73
2021/10/09 14:17:00;;;;;;;33.05;10.02;;;15.60;99.90;;;;;;4954553;29;20039;-73
2021/10/09 14:19:26;;;;;;;31.33;8.35;;;15.70;99.90;;;;;;4953981;29;20023;-73
2021/10/09 14:21:52;;;;;;;33.45;9.55;;;15.80;99.90;;;;;;4955384;28;20154;-73
2021/10/09 14:24:18;;;;;;;25.55;9.05;;;15.70;99.90;;;;;;4937887;29;20514;-73
2021/10/09 14:26:44;;;;;;;52.83;27.05;;;15.70;99.90;;;;;;4954883;29;20039;-73
2021/10/09 14:29:10;;;;;;;64.93;27.77;;;15.70;99.90;;;;;;4955015;29;20062;-74
2021/10/09 14:31:36;;;;;;;25.27;12.50;;;15.70;99.90;;;;;;4955067;29;20074;-74
2021/10/09 14:34:03;;;;;;;28.05;9.60;;;15.70;99.90;;;;;;4955261;29;20080;-74
2021/10/09 14:36:28;;;;;;;26.85;8.57;;;15.70;99.90;;;;;;4937315;29;20556;-76
2021/10/09 14:38:55;;;;;;;27.20;10.13;;;15.70;99.90;;;;;;4954842;29;20159;-75
2021/10/09 14:41:21;;;;;;;23.30;9.32;;;15.60;99.90;;;;;;4954966;29;20499;-73
2021/10/09 14:43:46;;;;;;;20.65;9.15;;;15.60;99.90;;;;;;4954662;29;20039;-74
2021/10/09 14:48:48;;;;;;;27.27;9.07;;;15.60;99.90;;;;;;4954491;29;20035;-74
2021/10/09 14:54:25;;;;;;;14.85;9.18;;;15.50;99.90;;;;;;4955081;29;20044;-73
2021/10/09 15:18:32;;;;;;;22.25;9.43;;;15.20;99.90;;;;;;4943049;29;20042;-72
2021/10/09 15:20:59;;;;;;;27.02;9.50;;;15.20;99.90;;;;;;4954608;29;20036;-72
2021/10/09 15:23:25;;;;;;;29.40;10.65;;;15.10;99.90;;;;;;4954663;29;20027;-72
2021/10/09 15:25:51;;;;;;;22.90;9.80;;;15.10;99.90;;;;;;4954598;29;20186;-74
2021/10/09 15:28:19;;;;;;;22.60;9.52;;;15.00;99.90;;;;;;4954536;29;20035;-73
2021/10/09 15:30:45;;;;;;;26.67;10.73;;;15.00;99.90;;;;;;4954342;29;20110;-72
2021/10/09 15:33:11;;;;;;;25.52;10.07;;;15.00;99.90;;;;;;4954505;28;20504;-72
2021/10/09 15:35:37;;;;;;;29.98;10.20;;;15.00;99.90;;;;;;4958091;29;20404;-72